Česky Dansk Deutsch English Español Suomi Français Magyar Italiano Nederlands norsk Polski Português svenska Türkçe

 

Het Weer

Avord (Frankrijk)

18:30, 20 augustus 2016 (GMT)

NWNNE
WE
SWSSE
Home            
Avord Bourges Nevers Chateauroux Romorantin Montlucon / Gueret Auxerre Vichy Orleans Saint-Yan Chateaudun Clermont-Ferrand Tours Chatillon-Sur-Seine Limoges Melun Troyes Chartres Poitiers Macon Dijon Paris-Orly Villacoublay

Om een weerknop op uw website of weblog te plaatsen, copieer onderstaande code en plak die in uw pagina. In het eerste vakje staat HTML-code, in het tweede vakje UBB-code.


Add to Google

Details

Wind speed:3 bf, 9 kn, 4.6 m/s, 10.4 miles/h, 16.7 km/h
Wind direction:W, 270°
Visibility:Greater than 10000 m, 10 km, 32800 ft, 6.2 miles
Clouds:CAVOC
Temperature:21°C, 70°F
Dew-point:10°C, 50°F
Atmospheric pressure:1018 hPa, 763.6 mmHg, 30.06 inHg, 1.005 atm
Relative humidity:49.4 %
METAR:LFOA 201830Z AUTO 27009KT CAVOK 21/10 Q1018

Snelkoppelingen

Actuele weersinformatie van de hele wereld. Voeg locaties toe met het plus (+) symbool. Deze snelkoppelingen kunnen worden toegevoegd aan Google.

Lid van de Technetium groep

website free tracking
StatCounter NetStat W3C Validator

19-05-2022 05:26:12
astro.technetium.be money.technetium.be phote.technetium.be tafeltennistafel.technetium.be www.ligfiets.net